createdAt,value
2019-01-25T00:00:41.742Z,1007.98
2019-01-25T00:01:41.734Z,1007.99
2019-01-25T00:02:41.764Z,1007.98
2019-01-25T00:03:41.735Z,1008.01
2019-01-25T00:04:41.708Z,1008.01
2019-01-25T00:05:41.689Z,1007.98
2019-01-25T00:06:41.682Z,1007.95
2019-01-25T00:07:41.686Z,1007.98
2019-01-25T00:08:41.726Z,1008.00
2019-01-25T00:09:41.692Z,1007.97
2019-01-25T00:10:41.673Z,1007.96
2019-01-25T00:11:41.648Z,1007.94
2019-01-25T00:12:41.621Z,1007.97
2019-01-25T00:13:41.656Z,1007.95
2019-01-25T00:14:41.610Z,1007.96
2019-01-25T00:15:41.592Z,1007.95
2019-01-25T00:16:41.572Z,1007.93
2019-01-25T00:17:41.601Z,1007.91
2019-01-25T00:18:41.577Z,1007.97
2019-01-25T00:19:41.566Z,1007.96
2019-01-25T00:20:41.540Z,1008.01
2019-01-25T00:21:41.527Z,1007.98
2019-01-25T00:22:41.599Z,1007.98
2019-01-25T00:23:41.540Z,1007.98
2019-01-25T00:24:41.496Z,1008.00
2019-01-25T00:25:41.505Z,1007.91
2019-01-25T00:26:41.472Z,1007.98
2019-01-25T00:27:41.469Z,1007.92
2019-01-25T00:28:41.499Z,1007.97
2019-01-25T00:29:41.475Z,1007.99
2019-01-25T00:30:41.428Z,1008.01
2019-01-25T00:31:41.418Z,1008.04
2019-01-25T00:32:41.406Z,1007.98
2019-01-25T00:33:41.412Z,1007.97
2019-01-25T00:34:41.414Z,1007.97
2019-01-25T00:35:41.378Z,1008.01
2019-01-25T00:36:41.371Z,1007.95
2019-01-25T00:37:41.358Z,1007.98
2019-01-25T00:38:41.346Z,1007.98
2019-01-25T00:39:41.438Z,1007.95
2019-01-25T00:40:42.080Z,1007.96
2019-01-25T00:41:41.372Z,1008.00
2019-01-25T00:42:41.332Z,1007.97
2019-01-25T00:43:41.303Z,1007.97
2019-01-25T00:44:41.311Z,1007.98
2019-01-25T00:45:41.298Z,1007.95
2019-01-25T00:46:41.286Z,1007.99
2019-01-25T00:47:41.271Z,1008.01
2019-01-25T00:48:41.239Z,1007.93
2019-01-25T00:49:41.263Z,1007.95
2019-01-25T00:50:41.247Z,1007.92
2019-01-25T00:51:41.207Z,1007.95
2019-01-25T00:52:41.203Z,1007.92
2019-01-25T00:53:41.236Z,1007.92
2019-01-25T00:54:41.187Z,1007.88
2019-01-25T00:55:41.242Z,1007.92
2019-01-25T00:56:41.191Z,1007.88
2019-01-25T00:57:41.156Z,1007.92
2019-01-25T00:58:41.164Z,1007.92
2019-01-25T00:59:41.164Z,1008.00
2019-01-25T01:00:41.127Z,1007.99
2019-01-25T01:01:41.169Z,1007.99
2019-01-25T01:02:41.092Z,1007.99
2019-01-25T01:03:41.083Z,1008.00
2019-01-25T01:04:41.124Z,1007.98
2019-01-25T01:05:41.092Z,1008.02
2019-01-25T01:06:41.084Z,1007.98
2019-01-25T01:07:41.051Z,1007.99
2019-01-25T01:08:41.060Z,1008.01
2019-01-25T01:09:41.038Z,1007.99
2019-01-25T01:10:41.043Z,1008.02
2019-01-25T01:11:41.031Z,1008.00
2019-01-25T01:12:41.021Z,1008.00
2019-01-25T01:13:41.065Z,1008.02
2019-01-25T01:14:40.970Z,1008.03
2019-01-25T01:15:40.982Z,1008.00
2019-01-25T01:16:40.947Z,1007.99
2019-01-25T01:17:41.053Z,1008.01
2019-01-25T01:18:40.945Z,1008.00
2019-01-25T01:19:40.940Z,1008.01
2019-01-25T01:20:40.906Z,1008.05
2019-01-25T01:21:40.925Z,1008.05
2019-01-25T01:22:40.886Z,1008.08
2019-01-25T01:23:40.910Z,1008.07
2019-01-25T01:24:40.865Z,1008.06
2019-01-25T01:25:40.897Z,1008.07
2019-01-25T01:26:40.861Z,1008.07
2019-01-25T01:27:40.834Z,1008.07
2019-01-25T01:28:40.857Z,1008.08
2019-01-25T01:29:40.886Z,1008.03
2019-01-25T01:30:40.802Z,1008.06
2019-01-25T01:31:40.794Z,1008.04
2019-01-25T01:32:40.826Z,1008.06
2019-01-25T01:33:40.788Z,1008.07
2019-01-25T01:34:40.815Z,1008.08
2019-01-25T01:35:40.756Z,1008.10
2019-01-25T01:36:40.738Z,1008.13
2019-01-25T01:37:40.732Z,1008.18
2019-01-25T01:38:40.745Z,1008.11
2019-01-25T01:39:40.741Z,1008.12
2019-01-25T01:40:40.700Z,1008.11
2019-01-25T01:41:40.693Z,1008.11
2019-01-25T01:42:40.699Z,1008.14
2019-01-25T01:43:40.668Z,1008.14
2019-01-25T01:44:40.695Z,1008.10
2019-01-25T01:45:40.650Z,1008.09
2019-01-25T01:46:40.657Z,1008.06
2019-01-25T01:47:40.625Z,1008.10
2019-01-25T01:48:40.627Z,1008.12
2019-01-25T01:49:40.610Z,1008.12
2019-01-25T01:50:40.626Z,1008.14
2019-01-25T01:51:40.653Z,1008.12
2019-01-25T01:52:40.577Z,1008.15
2019-01-25T01:53:40.562Z,1008.14
2019-01-25T01:54:40.550Z,1008.18
2019-01-25T01:55:40.652Z,1008.16
2019-01-25T01:56:40.531Z,1008.19
2019-01-25T01:57:40.521Z,1008.16
2019-01-25T01:58:40.553Z,1008.12
2019-01-25T01:59:40.538Z,1008.14
2019-01-25T02:00:40.512Z,1008.15
2019-01-25T02:01:40.485Z,1008.15
2019-01-25T02:02:40.480Z,1008.17
2019-01-25T02:03:40.526Z,1008.14
2019-01-25T02:04:40.448Z,1008.18
2019-01-25T02:05:40.484Z,1008.18
2019-01-25T02:06:40.470Z,1008.20
2019-01-25T02:07:40.416Z,1008.18
2019-01-25T02:08:40.403Z,1008.13
2019-01-25T02:09:40.402Z,1008.20
2019-01-25T02:10:40.414Z,1008.15
2019-01-25T02:11:40.410Z,1008.18
2019-01-25T02:12:40.388Z,1008.17
2019-01-25T02:13:40.373Z,1008.18
2019-01-25T02:14:40.341Z,1008.18
2019-01-25T02:15:40.354Z,1008.25
2019-01-25T02:16:40.392Z,1008.23
2019-01-25T02:17:40.311Z,1008.20
2019-01-25T02:18:40.305Z,1008.19
2019-01-25T02:19:40.291Z,1008.22
2019-01-25T02:20:40.308Z,1008.22
2019-01-25T02:21:40.273Z,1008.18
2019-01-25T02:22:40.291Z,1008.16
2019-01-25T02:23:40.248Z,1008.16
2019-01-25T02:24:40.240Z,1008.13
2019-01-25T02:25:40.300Z,1008.17
2019-01-25T02:26:40.217Z,1008.16
2019-01-25T02:27:40.254Z,1008.19
2019-01-25T02:28:40.218Z,1008.19
2019-01-25T02:29:40.184Z,1008.23
2019-01-25T02:30:40.196Z,1008.24
2019-01-25T02:31:40.167Z,1008.22
2019-01-25T02:32:40.257Z,1008.19
2019-01-25T02:33:40.189Z,1008.23
2019-01-25T02:34:40.139Z,1008.21
2019-01-25T02:35:40.208Z,1008.18
2019-01-25T02:36:40.207Z,1008.14
2019-01-25T02:37:40.103Z,1008.16
2019-01-25T02:38:40.137Z,1008.16
2019-01-25T02:39:40.090Z,1008.11
2019-01-25T02:40:40.075Z,1008.10
2019-01-25T02:41:40.144Z,1008.09
2019-01-25T02:42:40.049Z,1008.10
2019-01-25T02:43:40.065Z,1008.12
2019-01-25T02:44:40.129Z,1008.07
2019-01-25T02:45:40.025Z,1008.08
2019-01-25T02:46:40.007Z,1008.11
2019-01-25T02:47:40.045Z,1008.05
2019-01-25T02:48:40.041Z,1008.06
2019-01-25T02:49:39.991Z,1008.09
2019-01-25T02:50:39.970Z,1008.04
2019-01-25T02:51:39.998Z,1008.15
2019-01-25T02:52:39.975Z,1008.17
2019-01-25T02:53:39.966Z,1008.11
2019-01-25T02:54:40.025Z,1008.09
2019-01-25T02:55:39.914Z,1008.10
2019-01-25T02:56:39.917Z,1008.09
2019-01-25T02:57:39.921Z,1008.13
2019-01-25T02:58:39.941Z,1008.11
2019-01-25T02:59:40.005Z,1008.12
2019-01-25T03:00:39.865Z,1008.10
2019-01-25T03:01:39.854Z,1008.11
2019-01-25T03:02:39.843Z,1008.09
2019-01-25T03:03:39.846Z,1008.11
2019-01-25T03:04:39.861Z,1008.11
2019-01-25T03:05:39.813Z,1008.14
2019-01-25T03:06:39.815Z,1008.15
2019-01-25T03:07:39.842Z,1008.12
2019-01-25T03:08:39.783Z,1008.11
2019-01-25T03:09:39.823Z,1008.15
2019-01-25T03:10:47.101Z,1008.11
2019-01-25T03:11:40.759Z,1008.09
2019-01-25T03:12:39.741Z,1008.09
2019-01-25T03:13:39.728Z,1008.07
2019-01-25T03:14:39.716Z,1008.07
2019-01-25T03:15:39.733Z,1008.09
2019-01-25T03:16:39.726Z,1008.10
2019-01-25T03:17:39.689Z,1008.11
2019-01-25T03:18:39.684Z,1008.13
2019-01-25T03:19:39.664Z,1008.08
2019-01-25T03:20:39.683Z,1008.10
2019-01-25T03:21:39.656Z,1008.09
2019-01-25T03:22:39.633Z,1008.11
2019-01-25T03:23:39.667Z,1008.13
2019-01-25T03:24:39.661Z,1008.14
2019-01-25T03:25:39.628Z,1008.14
2019-01-25T03:26:39.598Z,1008.11
2019-01-25T03:27:39.586Z,1008.10
2019-01-25T03:28:39.575Z,1008.10
2019-01-25T03:29:39.559Z,1008.10
2019-01-25T03:30:39.587Z,1008.11
2019-01-25T03:31:39.623Z,1008.10
2019-01-25T03:32:39.541Z,1008.13
2019-01-25T03:33:39.535Z,1008.11
2019-01-25T03:34:39.535Z,1008.14
2019-01-25T03:35:39.503Z,1008.15
2019-01-25T03:36:39.515Z,1008.09
2019-01-25T03:37:39.476Z,1008.11
2019-01-25T03:38:39.482Z,1008.10
2019-01-25T03:39:39.459Z,1008.10
2019-01-25T03:40:39.454Z,1008.13
2019-01-25T03:41:39.464Z,1008.05
2019-01-25T03:42:39.436Z,1008.09
2019-01-25T03:43:39.414Z,1008.12
2019-01-25T03:44:39.463Z,1008.10
2019-01-25T03:45:39.402Z,1008.09
2019-01-25T03:46:39.426Z,1008.12
2019-01-25T03:47:39.378Z,1008.16
2019-01-25T03:48:39.372Z,1008.16
2019-01-25T03:49:39.351Z,1008.20
2019-01-25T03:50:39.347Z,1008.15
2019-01-25T03:51:39.364Z,1008.20
2019-01-25T03:52:39.348Z,1008.20
2019-01-25T03:53:39.311Z,1008.20
2019-01-25T03:54:39.300Z,1008.21
2019-01-25T03:55:39.291Z,1008.21
2019-01-25T03:56:39.278Z,1008.20
2019-01-25T03:57:39.334Z,1008.22
2019-01-25T03:58:39.261Z,1008.26
2019-01-25T03:59:40.154Z,1008.24
2019-01-25T04:00:39.240Z,1008.25
2019-01-25T04:01:39.233Z,1008.30
2019-01-25T04:02:39.252Z,1008.30
2019-01-25T04:03:39.227Z,1008.30
2019-01-25T04:04:39.202Z,1008.30
2019-01-25T04:05:39.198Z,1008.30
2019-01-25T04:06:39.173Z,1008.30
2019-01-25T04:07:39.188Z,1008.29
2019-01-25T04:08:39.179Z,1008.23
2019-01-25T04:09:39.188Z,1008.28
2019-01-25T04:10:39.135Z,1008.23
2019-01-25T04:11:39.205Z,1008.22
2019-01-25T04:12:39.111Z,1008.31
2019-01-25T04:13:39.123Z,1008.26
2019-01-25T04:14:39.123Z,1008.28
2019-01-25T04:15:39.080Z,1008.30
2019-01-25T04:16:39.070Z,1008.33
2019-01-25T04:17:39.114Z,1008.32
2019-01-25T04:18:39.076Z,1008.33
2019-01-25T04:19:39.050Z,1008.37
2019-01-25T04:20:39.055Z,1008.38
2019-01-25T04:21:39.017Z,1008.36
2019-01-25T04:22:39.011Z,1008.38
2019-01-25T04:23:39.095Z,1008.34
2019-01-25T04:24:38.986Z,1008.40
2019-01-25T04:25:38.978Z,1008.39
2019-01-25T04:26:38.964Z,1008.39
2019-01-25T04:27:38.959Z,1008.42
2019-01-25T04:28:38.951Z,1008.41
2019-01-25T04:29:38.985Z,1008.41
2019-01-25T04:30:38.946Z,1008.39
2019-01-25T04:31:38.927Z,1008.41
2019-01-25T04:32:38.902Z,1008.40
2019-01-25T04:33:38.901Z,1008.40
2019-01-25T04:34:38.910Z,1008.40
2019-01-25T04:35:38.900Z,1008.39
2019-01-25T04:36:38.862Z,1008.38
2019-01-25T04:37:38.853Z,1008.43
2019-01-25T04:38:38.844Z,1008.40
2019-01-25T04:39:38.881Z,1008.44
2019-01-25T04:40:38.826Z,1008.40
2019-01-25T04:41:38.828Z,1008.39
2019-01-25T04:42:38.804Z,1008.37
2019-01-25T04:43:38.813Z,1008.42
2019-01-25T04:44:38.791Z,1008.39
2019-01-25T04:45:38.795Z,1008.44
2019-01-25T04:46:38.764Z,1008.40
2019-01-25T04:47:38.808Z,1008.36
2019-01-25T04:48:38.736Z,1008.37
2019-01-25T04:49:38.735Z,1008.35
2019-01-25T04:50:38.789Z,1008.36
2019-01-25T04:51:38.709Z,1008.38
2019-01-25T04:52:38.696Z,1008.42
2019-01-25T04:53:38.719Z,1008.35
2019-01-25T04:54:38.755Z,1008.36
2019-01-25T04:55:38.689Z,1008.36
2019-01-25T04:56:38.656Z,1008.40
2019-01-25T04:57:38.646Z,1008.39
2019-01-25T04:58:38.643Z,1008.40
2019-01-25T04:59:38.633Z,1008.42
2019-01-25T05:00:38.655Z,1008.44
2019-01-25T05:01:38.622Z,1008.44
2019-01-25T05:02:38.652Z,1008.42
2019-01-25T05:03:38.828Z,1008.40
2019-01-25T05:04:38.707Z,1008.39
2019-01-25T05:05:38.679Z,1008.40
2019-01-25T05:06:38.636Z,1008.46
2019-01-25T05:07:38.597Z,1008.46
2019-01-25T05:08:38.600Z,1008.46
2019-01-25T05:09:38.542Z,1008.42
2019-01-25T05:10:38.519Z,1008.41
2019-01-25T05:11:38.598Z,1008.40
2019-01-25T05:12:38.553Z,1008.39
2019-01-25T05:13:38.475Z,1008.36
2019-01-25T05:14:38.476Z,1008.38
2019-01-25T05:15:38.477Z,1008.36
2019-01-25T05:16:38.468Z,1008.34
2019-01-25T05:17:38.456Z,1008.39
2019-01-25T05:18:38.426Z,1008.37
2019-01-25T05:19:38.413Z,1008.39
2019-01-25T05:20:38.472Z,1008.42
2019-01-25T05:21:38.452Z,1008.41
2019-01-25T05:22:38.419Z,1008.44
2019-01-25T05:23:38.448Z,1008.38
2019-01-25T05:24:38.367Z,1008.44
2019-01-25T05:25:38.356Z,1008.46
2019-01-25T05:26:38.353Z,1008.43
2019-01-25T05:27:38.328Z,1008.42
2019-01-25T05:28:38.360Z,1008.45
2019-01-25T05:29:38.313Z,1008.47
2019-01-25T05:30:38.306Z,1008.41
2019-01-25T05:31:38.288Z,1008.44
2019-01-25T05:32:38.303Z,1008.45
2019-01-25T05:33:38.292Z,1008.44
2019-01-25T05:34:38.277Z,1008.41
2019-01-25T05:35:38.257Z,1008.38
2019-01-25T05:36:38.241Z,1008.39
2019-01-25T05:37:38.225Z,1008.38
2019-01-25T05:38:38.248Z,1008.39
2019-01-25T05:39:38.209Z,1008.41
2019-01-25T05:40:38.201Z,1008.41
2019-01-25T05:41:38.189Z,1008.44
2019-01-25T05:42:38.189Z,1008.42
2019-01-25T05:43:38.189Z,1008.42
2019-01-25T05:44:38.151Z,1008.43
2019-01-25T05:45:38.140Z,1008.49
2019-01-25T05:46:38.134Z,1008.47
2019-01-25T05:47:38.118Z,1008.51
2019-01-25T05:48:38.156Z,1008.50
2019-01-25T05:49:38.108Z,1008.49
2019-01-25T05:50:38.099Z,1008.53
2019-01-25T05:51:38.077Z,1008.53
2019-01-25T05:52:38.077Z,1008.54
2019-01-25T05:53:38.062Z,1008.53
2019-01-25T05:54:38.078Z,1008.51
2019-01-25T05:55:38.056Z,1008.53
2019-01-25T05:56:38.029Z,1008.56
2019-01-25T05:57:38.018Z,1008.55
2019-01-25T05:58:38.018Z,1008.60
2019-01-25T05:59:38.032Z,1008.59
2019-01-25T06:00:38.076Z,1008.59
2019-01-25T06:01:37.997Z,1008.58
2019-01-25T06:02:37.968Z,1008.64
2019-01-25T06:03:38.084Z,1008.64
2019-01-25T06:04:38.076Z,1008.66
2019-01-25T06:05:37.935Z,1008.66
2019-01-25T06:06:38.619Z,1008.68
2019-01-25T06:07:37.917Z,1008.68
2019-01-25T06:08:43.813Z,1008.65
2019-01-25T06:09:38.940Z,1008.71
2019-01-25T06:10:37.884Z,1008.69
2019-01-25T06:11:37.928Z,1008.70
2019-01-25T06:12:37.876Z,1008.70
2019-01-25T06:13:37.849Z,1008.76
2019-01-25T06:14:37.873Z,1008.73
2019-01-25T06:15:37.864Z,1008.76
2019-01-25T06:16:37.830Z,1008.82
2019-01-25T06:17:37.884Z,1008.82
2019-01-25T06:18:37.805Z,1008.86
2019-01-25T06:19:37.827Z,1008.83
2019-01-25T06:20:37.781Z,1008.83
2019-01-25T06:21:37.773Z,1008.91
2019-01-25T06:22:37.819Z,1008.92
2019-01-25T06:23:37.752Z,1008.92
2019-01-25T06:24:37.805Z,1008.88
2019-01-25T06:25:37.795Z,1008.92
2019-01-25T06:26:37.732Z,1008.86
2019-01-25T06:27:38.091Z,1008.86
2019-01-25T06:28:37.691Z,1008.86
2019-01-25T06:29:37.707Z,1008.83
2019-01-25T06:30:37.677Z,1008.85
2019-01-25T06:31:37.708Z,1008.88
2019-01-25T06:32:37.694Z,1008.85
2019-01-25T06:33:37.643Z,1008.88
2019-01-25T06:34:37.669Z,1008.93
2019-01-25T06:35:37.637Z,1008.89
2019-01-25T06:36:37.716Z,1008.85
2019-01-25T06:37:37.652Z,1008.87
2019-01-25T06:38:37.610Z,1008.86
2019-01-25T06:39:37.616Z,1008.90
2019-01-25T06:40:37.568Z,1008.91
2019-01-25T06:41:43.998Z,1008.91
2019-01-25T06:42:38.585Z,1008.94
2019-01-25T06:43:37.592Z,1008.97
2019-01-25T06:44:37.578Z,1008.92
2019-01-25T06:45:37.549Z,1008.92
2019-01-25T06:46:37.508Z,1008.98
2019-01-25T06:47:37.495Z,1008.97
2019-01-25T06:48:37.485Z,1008.96
2019-01-25T06:49:37.571Z,1008.92
2019-01-25T06:50:37.490Z,1008.96
2019-01-25T06:51:37.456Z,1008.95
2019-01-25T06:52:37.451Z,1008.93
2019-01-25T06:53:37.592Z,1008.94
2019-01-25T06:54:37.426Z,1008.96
2019-01-25T06:55:37.465Z,1008.96
2019-01-25T06:56:37.409Z,1008.96
2019-01-25T06:57:37.393Z,1009.00
2019-01-25T06:58:37.407Z,1008.97
2019-01-25T06:59:37.377Z,1009.00
2019-01-25T07:00:37.404Z,1009.03
2019-01-25T07:01:37.351Z,1009.03
2019-01-25T07:02:37.342Z,1009.02
2019-01-25T07:03:37.329Z,1009.00
2019-01-25T07:04:37.347Z,1008.98
2019-01-25T07:05:37.349Z,1009.02
2019-01-25T07:06:37.326Z,1009.03
2019-01-25T07:07:37.290Z,1009.02
2019-01-25T07:08:37.348Z,1009.03
2019-01-25T07:09:37.306Z,1009.03
2019-01-25T07:10:37.259Z,1009.04
2019-01-25T07:11:42.091Z,1009.04
2019-01-25T07:12:38.236Z,1008.99
2019-01-25T07:13:37.275Z,1009.03
2019-01-25T07:14:37.263Z,1009.03
2019-01-25T07:15:37.207Z,1009.00
2019-01-25T07:16:37.243Z,1009.05
2019-01-25T07:17:37.185Z,1009.04
2019-01-25T07:18:37.190Z,1009.01
2019-01-25T07:19:37.892Z,1009.02
2019-01-25T07:20:37.158Z,1009.00
2019-01-25T07:21:37.171Z,1008.99
2019-01-25T07:22:37.131Z,1008.98
2019-01-25T07:23:37.126Z,1009.02
2019-01-25T07:24:37.115Z,1008.94
2019-01-25T07:25:37.144Z,1009.01
2019-01-25T07:26:37.119Z,1009.03
2019-01-25T07:27:37.092Z,1009.04
2019-01-25T07:28:37.091Z,1009.04
2019-01-25T07:29:37.096Z,1009.05
2019-01-25T07:30:37.063Z,1009.08
2019-01-25T07:31:37.108Z,1009.04
2019-01-25T07:32:37.041Z,1009.08
2019-01-25T07:33:37.162Z,1009.07
2019-01-25T07:34:37.008Z,1009.05
2019-01-25T07:35:37.072Z,1009.09
2019-01-25T07:36:37.046Z,1009.08
2019-01-25T07:37:37.003Z,1009.06
2019-01-25T07:38:36.969Z,1009.05
2019-01-25T07:39:36.957Z,1009.05
2019-01-25T07:40:37.039Z,1009.07
2019-01-25T07:41:36.953Z,1009.09
2019-01-25T07:42:36.956Z,1009.08
2019-01-25T07:43:36.965Z,1009.04
2019-01-25T07:44:36.949Z,1009.11
2019-01-25T07:45:36.941Z,1009.06
2019-01-25T07:46:36.994Z,1009.13
2019-01-25T07:47:36.897Z,1009.15
2019-01-25T07:48:36.860Z,1009.05
2019-01-25T07:49:36.983Z,1009.08
2019-01-25T07:50:36.857Z,1009.08
2019-01-25T07:51:36.890Z,1009.09
2019-01-25T07:52:36.845Z,1009.11
2019-01-25T07:53:36.950Z,1009.07
2019-01-25T07:54:36.820Z,1009.08
2019-01-25T07:55:36.788Z,1009.15
2019-01-25T07:56:36.786Z,1009.12
2019-01-25T07:57:36.817Z,1009.12
2019-01-25T07:58:36.812Z,1009.07
2019-01-25T07:59:36.829Z,1009.07
2019-01-25T08:00:36.763Z,1009.06
2019-01-25T08:01:36.730Z,1009.06
2019-01-25T08:02:36.728Z,1009.13
2019-01-25T08:03:36.791Z,1009.16
2019-01-25T08:04:36.822Z,1009.13
2019-01-25T08:05:36.715Z,1009.13
2019-01-25T08:06:36.685Z,1009.11
2019-01-25T08:07:36.709Z,1009.10
2019-01-25T08:08:36.703Z,1009.13
2019-01-25T08:09:36.654Z,1009.11
2019-01-25T08:10:36.643Z,1009.11
2019-01-25T08:11:36.633Z,1009.12
2019-01-25T08:12:36.614Z,1009.09
2019-01-25T08:13:36.653Z,1009.14
2019-01-25T08:14:36.706Z,1009.13
2019-01-25T08:15:36.583Z,1009.15
2019-01-25T08:16:36.613Z,1009.14
2019-01-25T08:17:36.613Z,1009.11
2019-01-25T08:18:36.568Z,1009.19
2019-01-25T08:19:36.579Z,1009.21
2019-01-25T08:20:36.535Z,1009.18
2019-01-25T08:21:36.617Z,1009.18
2019-01-25T08:22:36.521Z,1009.21
2019-01-25T08:23:36.501Z,1009.22
2019-01-25T08:24:36.523Z,1009.26
2019-01-25T08:25:36.490Z,1009.21
2019-01-25T08:26:36.476Z,1009.26
2019-01-25T08:27:36.556Z,1009.21
2019-01-25T08:28:36.446Z,1009.29
2019-01-25T08:29:36.486Z,1009.31
2019-01-25T08:30:36.430Z,1009.29
2019-01-25T08:31:36.438Z,1009.33
2019-01-25T08:32:36.445Z,1009.33
2019-01-25T08:33:36.421Z,1009.30
2019-01-25T08:34:36.453Z,1009.32
2019-01-25T08:35:36.424Z,1009.28
2019-01-25T08:36:36.364Z,1009.26
2019-01-25T08:37:36.362Z,1009.33
2019-01-25T08:38:36.356Z,1009.32
2019-01-25T08:39:36.453Z,1009.36
2019-01-25T08:40:36.360Z,1009.35
2019-01-25T08:41:36.318Z,1009.34
2019-01-25T08:42:36.352Z,1009.38
2019-01-25T08:43:36.297Z,1009.40
2019-01-25T08:44:36.353Z,1009.36
2019-01-25T08:45:36.375Z,1009.33
2019-01-25T08:46:36.295Z,1009.35
2019-01-25T08:47:36.435Z,1009.32
2019-01-25T08:48:36.246Z,1009.30
2019-01-25T08:49:36.314Z,1009.31
2019-01-25T08:50:36.216Z,1009.32
2019-01-25T08:51:36.569Z,1009.29
2019-01-25T08:52:36.271Z,1009.32
2019-01-25T08:53:36.190Z,1009.29
2019-01-25T08:54:36.193Z,1009.31
2019-01-25T08:55:36.207Z,1009.31
2019-01-25T08:56:36.245Z,1009.40
2019-01-25T08:57:36.174Z,1009.44
2019-01-25T08:58:36.173Z,1009.43
2019-01-25T08:59:36.123Z,1009.44
2019-01-25T09:00:36.117Z,1009.40
2019-01-25T09:01:36.139Z,1009.43
2019-01-25T09:02:36.092Z,1009.44
2019-01-25T09:03:36.094Z,1009.39
2019-01-25T09:04:36.090Z,1009.42
2019-01-25T09:05:36.072Z,1009.42
2019-01-25T09:06:36.083Z,1009.47
2019-01-25T09:07:36.061Z,1009.47
2019-01-25T09:08:36.024Z,1009.46
2019-01-25T09:09:36.022Z,1009.48
2019-01-25T09:10:36.060Z,1009.46
2019-01-25T09:11:36.039Z,1009.45
2019-01-25T09:12:35.986Z,1009.39
2019-01-25T09:13:35.984Z,1009.37
2019-01-25T09:14:35.993Z,1009.42
2019-01-25T09:15:35.962Z,1009.40
2019-01-25T09:16:36.042Z,1009.38
2019-01-25T09:17:35.959Z,1009.39
2019-01-25T09:18:35.925Z,1009.34
2019-01-25T09:19:36.018Z,1009.31
2019-01-25T09:20:35.939Z,1009.32
2019-01-25T09:21:36.012Z,1009.27
2019-01-25T09:22:35.908Z,1009.27
2019-01-25T09:23:35.882Z,1009.26
2019-01-25T09:24:35.868Z,1009.25
2019-01-25T09:25:35.850Z,1009.31
2019-01-25T09:26:35.899Z,1009.28
2019-01-25T09:27:35.879Z,1009.33
2019-01-25T09:28:35.853Z,1009.26
2019-01-25T09:29:35.900Z,1009.28
2019-01-25T09:30:35.795Z,1009.26
2019-01-25T09:31:35.801Z,1009.27
2019-01-25T09:32:35.805Z,1009.27
2019-01-25T09:33:35.825Z,1009.26
2019-01-25T09:34:35.759Z,1009.30
2019-01-25T09:35:35.749Z,1009.32
2019-01-25T09:36:35.737Z,1009.30
2019-01-25T09:37:35.806Z,1009.32
2019-01-25T09:38:35.717Z,1009.32
2019-01-25T09:39:35.715Z,1009.27
2019-01-25T09:40:35.698Z,1009.24
2019-01-25T09:41:35.678Z,1009.28
2019-01-25T09:42:35.734Z,1009.22
2019-01-25T09:43:35.702Z,1009.27
2019-01-25T09:44:35.655Z,1009.25
2019-01-25T09:45:35.722Z,1009.25
2019-01-25T09:46:35.694Z,1009.25
2019-01-25T09:47:35.641Z,1009.28
2019-01-25T09:48:35.639Z,1009.26
2019-01-25T09:49:35.617Z,1009.32
2019-01-25T09:50:35.601Z,1009.25
2019-01-25T09:51:35.581Z,1009.21
2019-01-25T09:52:35.590Z,1009.22
2019-01-25T09:53:35.633Z,1009.24
2019-01-25T09:54:35.581Z,1009.23
2019-01-25T09:55:35.542Z,1009.27
2019-01-25T09:56:35.601Z,1009.23
2019-01-25T09:57:35.514Z,1009.24
2019-01-25T09:58:35.528Z,1009.28
2019-01-25T09:59:35.546Z,1009.31
2019-01-25T10:00:35.486Z,1009.26
2019-01-25T10:01:35.476Z,1009.31
2019-01-25T10:02:35.462Z,1009.35
2019-01-25T10:03:35.482Z,1009.26
2019-01-25T10:04:35.487Z,1009.25
2019-01-25T10:05:35.443Z,1009.25
2019-01-25T10:06:35.425Z,1009.25
2019-01-25T10:07:35.436Z,1009.33
2019-01-25T10:08:35.436Z,1009.29
2019-01-25T10:09:35.391Z,1009.29
2019-01-25T10:10:35.385Z,1009.37
2019-01-25T10:11:35.375Z,1009.37
2019-01-25T10:12:43.096Z,1009.34
2019-01-25T10:13:36.405Z,1009.45
2019-01-25T10:14:35.353Z,1009.39
2019-01-25T10:15:35.345Z,1009.45
2019-01-25T10:16:35.338Z,1009.47
2019-01-25T10:17:35.322Z,1009.48
2019-01-25T10:18:35.320Z,1009.49
2019-01-25T10:19:35.350Z,1009.51
2019-01-25T10:20:35.284Z,1009.51
2019-01-25T10:21:35.265Z,1009.52
2019-01-25T10:22:35.267Z,1009.53
2019-01-25T10:23:39.201Z,1009.60
2019-01-25T10:24:35.241Z,1009.56
2019-01-25T10:25:35.230Z,1009.61
2019-01-25T10:26:35.255Z,1009.58
2019-01-25T10:27:35.206Z,1009.60
2019-01-25T10:28:35.242Z,1009.58
2019-01-25T10:29:35.285Z,1009.57
2019-01-25T10:30:35.173Z,1009.62
2019-01-25T10:31:35.189Z,1009.53
2019-01-25T10:32:35.164Z,1009.57
2019-01-25T10:33:35.149Z,1009.54
2019-01-25T10:34:35.156Z,1009.49
2019-01-25T10:35:35.133Z,1009.46
2019-01-25T10:36:35.206Z,1009.45
2019-01-25T10:37:35.109Z,1009.43
2019-01-25T10:38:35.119Z,1009.44
2019-01-25T10:39:35.128Z,1009.43
2019-01-25T10:40:35.079Z,1009.40
2019-01-25T10:41:35.117Z,1009.43
2019-01-25T10:42:35.054Z,1009.35
2019-01-25T10:43:35.040Z,1009.35
2019-01-25T10:44:35.069Z,1009.32
2019-01-25T10:45:35.048Z,1009.27
2019-01-25T10:46:35.022Z,1009.20
2019-01-25T10:47:35.016Z,1009.19
2019-01-25T10:48:34.998Z,1009.10
2019-01-25T10:49:35.056Z,1009.13
2019-01-25T10:50:35.011Z,1009.14
2019-01-25T10:51:35.008Z,1009.05
2019-01-25T10:52:35.002Z,1009.05
2019-01-25T10:53:34.941Z,1009.03
2019-01-25T10:54:35.138Z,1009.01
2019-01-25T10:55:34.957Z,1008.96
2019-01-25T10:56:34.962Z,1008.92
2019-01-25T10:57:34.903Z,1008.84
2019-01-25T10:58:34.913Z,1008.88
2019-01-25T10:59:34.869Z,1008.88
2019-01-25T11:00:34.892Z,1008.89
2019-01-25T11:01:34.880Z,1008.87
2019-01-25T11:02:34.908Z,1008.95
2019-01-25T11:03:34.836Z,1008.90
2019-01-25T11:04:34.892Z,1008.88
2019-01-25T11:05:34.826Z,1008.80
2019-01-25T11:06:34.828Z,1008.79
2019-01-25T11:07:34.881Z,1008.86
2019-01-25T11:08:34.778Z,1008.81
2019-01-25T11:09:38.041Z,1008.87
2019-01-25T11:10:34.854Z,1008.79
2019-01-25T11:11:34.840Z,1008.73
2019-01-25T11:12:34.749Z,1008.75
2019-01-25T11:13:34.728Z,1008.73
2019-01-25T11:14:34.715Z,1008.71
2019-01-25T11:15:34.699Z,1008.74
2019-01-25T11:16:34.857Z,1008.74
2019-01-25T11:17:36.510Z,1008.77
2019-01-25T11:18:34.682Z,1008.83
2019-01-25T11:19:34.660Z,1008.84
2019-01-25T11:20:34.702Z,1008.83
2019-01-25T11:21:37.518Z,1008.83
2019-01-25T11:22:34.682Z,1008.88
2019-01-25T11:23:34.629Z,1008.88
2019-01-25T11:24:34.628Z,1008.89
2019-01-25T11:25:34.689Z,1008.87
2019-01-25T11:26:34.583Z,1008.87
2019-01-25T11:27:34.638Z,1008.88
2019-01-25T11:28:34.599Z,1008.89
2019-01-25T11:29:34.553Z,1008.87
2019-01-25T11:30:34.545Z,1008.86
2019-01-25T11:31:34.556Z,1008.80
2019-01-25T11:32:36.078Z,1008.78
2019-01-25T11:33:34.601Z,1008.76
2019-01-25T11:34:34.505Z,1008.80
2019-01-25T11:35:34.505Z,1008.85
2019-01-25T11:36:34.520Z,1008.84
2019-01-25T11:37:34.563Z,1008.87
2019-01-25T11:38:34.500Z,1008.78
2019-01-25T11:39:34.457Z,1008.80
2019-01-25T11:40:34.435Z,1008.78
2019-01-25T11:41:34.491Z,1008.78
2019-01-25T11:42:34.462Z,1008.77
2019-01-25T11:43:34.434Z,1008.71
2019-01-25T11:44:34.507Z,1008.72
2019-01-25T11:45:34.401Z,1008.70
2019-01-25T11:46:34.371Z,1008.69
2019-01-25T11:47:34.364Z,1008.67
2019-01-25T11:48:34.481Z,1008.67
2019-01-25T11:49:34.372Z,1008.62
2019-01-25T11:50:34.416Z,1008.67
2019-01-25T11:51:34.332Z,1008.62
2019-01-25T11:52:34.318Z,1008.56
2019-01-25T11:53:34.464Z,1008.54
2019-01-25T11:54:34.296Z,1008.54
2019-01-25T11:55:34.280Z,1008.54
2019-01-25T11:56:34.277Z,1008.51
2019-01-25T11:57:34.275Z,1008.49
2019-01-25T11:58:34.300Z,1008.44
2019-01-25T11:59:34.235Z,1008.41
2019-01-25T12:00:34.277Z,1008.41
2019-01-25T12:01:34.231Z,1008.39
2019-01-25T12:02:34.200Z,1008.39
2019-01-25T12:03:34.232Z,1008.34
2019-01-25T12:04:34.185Z,1008.25
2019-01-25T12:05:34.169Z,1008.29